Flight Track Log - Related Links

Times and Time Zones

All times are in EDT time to prevent confusion due to time zone crossing. See the DAL1884 flight status page for this flight to view local times or setup timezone preferences in your user account.

Time Position Orientation Groundspeed Altitude Reporting Facility
EDT Latitude Longitude Course Direction KTS MPH feet Rate Location/Type
Wed 07:04:50 AM 29.9592 -95.3392 90° East 159 183 1,000  Level Houston Center
Wed 07:05:57 AM 29.9328 -95.2794 117° Southeast 231 266 3,300 2,438 Climbing Houston Center
Wed 07:06:58 AM 29.9292 -95.1956 93° East 289 333 6,200 3,074 Climbing Houston Center
Wed 07:07:00 AM 29.9834 -94.9426 90° East  Level FlightAware Approximate
Wed 07:07:58 AM 29.9350 -95.1008 86° East 292 336 9,500  Level Houston Center
Wed 07:08:00 AM 29.9834 -94.8124 90° East  Level FlightAware Approximate
Wed 07:09:00 AM 29.9833 -94.6822 90° East  Level FlightAware Approximate
Wed 07:09:11 AM 29.9458 -94.9817 84° East 319 367 11,800  Level Houston Center
Wed 07:10:12 AM 29.9539 -94.8617 86° East 369 425 14,300 2,430 Climbing Houston Center
Wed 07:11:12 AM 29.9636 -94.7364 85° East 387 445 16,700 2,281 Climbing Houston Center
Wed 07:12:13 AM 29.9733 -94.6089 85° East 397 457 18,900 2,262 Climbing Houston Center
Wed 07:13:14 AM 29.9842 -94.4778 85° East 408 470 21,300 1,884 Climbing Houston Center
Wed 07:14:14 AM 29.9931 -94.3569 85° East 412 474 22,700 1,686 Climbing Houston Center
Wed 07:15:15 AM 30.0061 -94.2197 84° East 427 491 24,700 1,721 Climbing Houston Center
Wed 07:16:16 AM 30.0242 -94.0806 81° East 438 504 26,200 1,488 Climbing Houston Center
Wed 07:17:16 AM 30.0422 -93.9403 82° East 445 512 27,700 1,587 Climbing Houston Center
Wed 07:18:17 AM 30.0622 -93.7678 82° East 453 521 29,400 1,426 Climbing Houston Center
Wed 07:19:18 AM 30.0800 -93.6231 82° East 458 527 30,600 1,180 Climbing Houston Center
Wed 07:20:19 AM 30.0964 -93.4767 83° East 466 536 31,800 1,438 Climbing Houston Center
Wed 07:21:19 AM 30.1133 -93.3317 82° East 465 535 33,500 1,438 Climbing Houston Center
Wed 07:22:20 AM 30.1297 -93.1883 82° East 457 526 34,700 1,279 Climbing Houston Center
Wed 07:23:21 AM 30.1511 -93.0481 80° East 451 519 36,100 1,082 Climbing Houston Center
Wed 07:24:22 AM 30.1789 -92.9119 77° East 441 507 36,900 443 Climbing Houston Center
Wed 07:25:23 AM 30.2056 -92.7744 77° East 440 506 37,000 49 Climbing Houston Center
Wed 07:26:24 AM 30.2317 -92.6358 78° East 443 510 37,000  Level Houston Center
Wed 07:27:25 AM 30.2647 -92.4711 77° East 441 507 37,000 -50 Level Houston Center
Wed 07:28:25 AM 30.2903 -92.3325 78° East 443 510 36,900  Descending Houston Center
Wed 07:29:26 AM 30.3186 -92.1886 77° East 444 511 37,000 98 Climbing Houston Center
Wed 07:30:27 AM 30.3444 -92.0492 78° East 445 512 37,100 49 Climbing Houston Center
Wed 07:31:28 AM 30.3706 -91.9108 78° East 444 511 37,100 -49 Level Houston Center
Wed 07:32:29 AM 30.3969 -91.7728 77° East 443 510 37,000 -49 Descending Houston Center
Wed 07:33:30 AM 30.4203 -91.6506 77° East 441 507 37,000  Level Houston Center
Wed 07:34:31 AM 30.4453 -91.5114 78° East 442 509 37,000  Level Houston Center
Wed 07:35:32 AM 30.4764 -91.3450 78° East 441 507 37,000  Level Houston Center
Wed 07:36:33 AM 30.5058 -91.2081 76° East 438 504 37,000  Level Houston Center
Wed 07:37:34 AM 30.5372 -91.0733 75° East 435 501 37,000  Level Houston Center
Wed 07:38:35 AM 30.5678 -90.9372 75° East 436 502 37,000  Level Houston Center
Wed 07:39:36 AM 30.5989 -90.8019 75° East 435 501 37,000  Level Houston Center
Wed 07:40:38 AM 30.6292 -90.6672 75° East 433 498 37,000  Level Houston Center
Wed 07:41:39 AM 30.6594 -90.5319 75° East 432 497 37,000 -443 Level Houston Center
Wed 07:42:40 AM 30.6900 -90.3972 75° East 430 495 36,100 -934 Descending Houston Center
Wed 07:43:41 AM 30.7197 -90.2614 76° East 432 497 35,100 -984 Descending Houston Center
Wed 07:44:42 AM 30.7500 -90.1247 76° East 433 498 34,100 -984 Descending Houston Center
Wed 07:45:43 AM 30.7803 -89.9836 76° East 444 511 33,100 -541 Descending Houston Center
Wed 07:46:44 AM 30.8119 -89.8411 75° East 450 518 33,000 -49 Descending Houston Center
Wed 07:47:46 AM 30.8425 -89.6994 76° East 450 518 33,000  Level Houston Center
Wed 07:48:47 AM 30.8731 -89.5594 76° East 446 513 33,000  Level Houston Center
Wed 07:49:48 AM 30.9094 -89.3889 76° East 450 518 33,000  Level Houston Center
Wed 07:50:49 AM 30.9400 -89.2469 76° East 451 519 33,000  Level Houston Center
Wed 07:51:50 AM 30.9689 -89.1042 77° East 451 519 33,000  Level Houston Center
Wed 07:52:52 AM 30.9981 -88.9628 76° East 449 517 33,000  Level Houston Center
Wed 07:53:53 AM 31.0242 -88.8375 76° East 449 517 33,000  Level Houston Center
Wed 07:54:54 AM 31.0594 -88.6669 76° East 450 518 33,000  Level Houston Center
Wed 07:55:56 AM 31.0894 -88.5378 75° East 450 518 33,000  Level Houston Center
Wed 07:56:57 AM 31.1472 -88.4097 62° Northeast 443 510 33,000  Level Houston Center
Wed 07:57:58 AM 31.2158 -88.2892 56° Northeast 457 526 33,000  Level Houston Center
Wed 07:58:59 AM 31.3033 -88.1578 52° Northeast 448 516 33,000  Level Houston Center
Wed 08:00:01 AM 31.3758 -88.0386 55° Northeast 447 514 33,000  Level Houston Center
Wed 08:01:02 AM 31.4467 -87.9197 55° Northeast 446 513 33,000  Level Houston Center
Wed 08:02:03 AM 31.5183 -87.8031 54° Northeast 444 511 33,000  Level Houston Center
Wed 08:03:05 AM 31.5897 -87.6844 55° Northeast 444 511 33,000  Level Houston Center
Wed 08:04:06 AM 31.6617 -87.5664 54° Northeast 444 511 33,000  Level Houston Center
Wed 08:05:18 AM 31.7544 -87.4264 52° Northeast 436 502 33,000 45 Level Atlanta Center
Wed 08:06:18 AM 31.8269 -87.2947 57° Northeast 436 502 33,100 50 Climbing Atlanta Center
Wed 08:07:18 AM 31.8989 -87.1725 55° Northeast 436 502 33,100 -400 Level Atlanta Center
Wed 08:08:18 AM 31.9708 -87.0550 54° Northeast 436 502 32,300 -900 Descending Atlanta Center
Wed 08:09:18 AM 32.0425 -86.9325 55° Northeast 436 502 31,300 -1,000 Descending Atlanta Center
Wed 08:10:18 AM 32.1164 -86.8097 55° Northeast 442 509 30,300 -950 Descending Atlanta Center
Wed 08:11:18 AM 32.1897 -86.7017 51° Northeast 447 514 29,400 -950 Descending Atlanta Center
Wed 08:12:18 AM 32.2611 -86.5786 56° Northeast 452 520 28,400 -1,000 Descending Atlanta Center
Wed 08:13:18 AM 32.3347 -86.4478 56° Northeast 457 526 27,400 -700 Descending Atlanta Center
Wed 08:14:18 AM 32.3997 -86.3242 58° Northeast 463 533 27,000 -400 Descending Atlanta Center
Wed 08:15:18 AM 32.4750 -86.1981 55° Northeast 456 525 26,600 -700 Descending Atlanta Center
Wed 08:16:18 AM 32.5522 -86.0719 54° Northeast 463 533 25,600 -1,000 Descending Atlanta Center
Wed 08:17:18 AM 32.6231 -85.9478 56° Northeast 463 533 24,600 -1,000 Descending Atlanta Center
Wed 08:18:18 AM 32.6894 -85.8306 56° Northeast 446 513 23,600 -1,000 Descending Atlanta Center
Wed 08:19:18 AM 32.7558 -85.7183 55° Northeast 426 490 22,600 -900 Descending Atlanta Center
Wed 08:20:18 AM 32.8072 -85.6281 56° Northeast 420 483 21,800 -1,000 Descending Atlanta Center
Wed 08:21:18 AM 32.8839 -85.4958 55° Northeast 414 476 20,600 -1,100 Descending Atlanta Center
Wed 08:22:18 AM 32.9478 -85.3878 55° Northeast 409 471 19,600 -1,250 Descending Atlanta Center
Wed 08:23:18 AM 33.0094 -85.2800 56° Northeast 397 457 18,100 -1,800 Descending Atlanta Center
Wed 08:24:18 AM 33.0708 -85.1842 53° Northeast 380 437 16,000 -1,750 Descending Atlanta Center
Wed 08:25:18 AM 33.1406 -85.0931 48° Northeast 367 422 14,600 -1,000 Descending Atlanta Center
Wed 08:26:18 AM 33.1997 -85.0144 48° Northeast 328 377 14,000 -1,150 Descending Atlanta Center
Wed 08:27:18 AM 33.2567 -84.9381 48° Northeast 309 356 12,300 -1,000 Descending Atlanta Center
Wed 08:28:18 AM 33.3178 -84.8542 49° Northeast 303 349 12,000 -100 Descending Atlanta Center
Wed 08:29:18 AM 33.3747 -84.7775 48° Northeast 303 349 12,100  Climbing Atlanta Center
Wed 08:30:18 AM 33.4333 -84.7008 47° Northeast 303 349 12,000 -50 Descending Atlanta Center
Wed 08:31:18 AM 33.4861 -84.6317 48° Northeast 298 343 12,000  Level Atlanta Center
Wed 08:32:18 AM 33.5508 -84.6097 16° North 246 283 12,000  Level Atlanta Center
Wed 08:33:18 AM 33.5553 -84.5300 86° East 216 249 12,000 -550 Level Atlanta Center
Wed 08:34:18 AM 33.5514 -84.4550 94° East 210 242 10,900 -1,362 Descending Atlanta Center
Wed 08:35:39 AM 33.5500 -84.3500 91° East 220 253 8,800 -1,489 Descending Atlanta TRACON
Wed 08:36:39 AM 33.5500 -84.2833 90° East 215 247 7,400 -1,450 Descending Atlanta TRACON
Wed 08:37:39 AM 33.5500 -84.2000 90° East 215 247 5,900 -1,421 Descending Atlanta TRACON
Wed 08:38:33 AM 33.5333 -84.1500 112° Southeast 216 249 4,700 -1,000 Descending Atlanta TRACON
Wed 08:39:33 AM 33.5333 -84.0667 90° East 218 251 4,000 -350 Descending Atlanta TRACON
Wed 08:40:33 AM 33.5333 -84.0000 90° East 216 249 4,000  Level Atlanta TRACON
Wed 08:41:33 AM 33.5667 -83.9500 51° Northeast 220 253 4,000  Level Atlanta TRACON
Wed 08:42:39 AM 33.6167 -83.9833 331° Northwest 194 223 4,000  Level Atlanta TRACON
Wed 08:43:39 AM 33.6167 -84.0500 270° West 183 211 4,000  Level Atlanta TRACON
Wed 08:44:39 AM 33.6167 -84.1000 270° West 183 211 4,000  Level Atlanta TRACON
Wed 08:45:39 AM 33.6167 -84.1667 270° West 180 207 4,000  Level Atlanta TRACON
Wed 08:46:39 AM 33.6167 -84.2333 270° West 175 201 4,000  Level Atlanta TRACON

Login

Don't have an account? Register now (free) for customized features, flight alerts, and more!